Time;durP1;ratioP1;P1;durP2;ratioP2;P2;SDS_P1;SDS_P2;PMS_P1;PMS_P2;Temp;Humidity;BMP_temperature;BMP_pressure;BME280_temperature;BME280_humidity;BME280_pressure;Samples;Min_cycle;Max_cycle;Signal;HPM_P1;HPM_P2
2022/04/22 00:01:24;;;;;;;40.35;28.10;;;10.10;99.90;;;;;;5097278;28;20115;-51
2022/04/22 00:04:09;;;;;;;37.20;28.00;;;10.00;99.90;;;;;;5093264;28;20043;-51
2022/04/22 00:06:53;;;;;;;40.77;28.97;;;10.00;99.90;;;;;;5112350;28;20116;-47
2022/04/22 00:09:37;;;;;;;41.77;27.70;;;10.00;99.90;;;;;;5105642;28;20080;-50
2022/04/22 00:12:21;;;;;;;37.33;27.85;;;10.00;99.90;;;;;;5106334;28;20141;-50
2022/04/22 00:15:05;;;;;;;40.37;29.47;;;10.00;99.90;;;;;;5112559;28;20093;-47
2022/04/22 00:17:52;;;;;;;40.35;28.58;;;10.00;99.90;;;;;;5113415;28;20035;-49
2022/04/22 00:20:37;;;;;;;39.55;28.73;;;10.00;99.90;;;;;;5090252;28;20085;-47
2022/04/22 00:23:21;;;;;;;36.90;27.77;;;10.00;99.90;;;;;;5092950;28;20042;-50
2022/04/22 00:26:06;;;;;;;38.10;28.52;;;10.00;99.90;;;;;;5105956;27;20418;-51
2022/04/22 00:28:49;;;;;;;39.55;28.35;;;10.00;99.90;;;;;;5125496;27;20452;-45
2022/04/22 00:31:34;;;;;;;38.63;27.87;;;10.00;99.90;;;;;;5113187;28;20185;-50
2022/04/22 00:34:18;;;;;;;41.15;28.80;;;9.90;99.90;;;;;;5112849;28;20691;-49
2022/04/22 00:37:02;;;;;;;42.33;29.77;;;9.90;99.90;;;;;;5093059;28;20057;-47
2022/04/22 00:39:46;;;;;;;43.63;30.35;;;9.90;99.90;;;;;;5093731;28;20034;-47
2022/04/22 00:42:31;;;;;;;39.17;29.05;;;9.80;99.90;;;;;;5112546;27;20547;-46
2022/04/22 00:45:18;;;;;;;40.15;29.10;;;9.80;99.90;;;;;;5091924;28;20032;-46
2022/04/22 00:48:02;;;;;;;44.78;30.35;;;9.90;99.90;;;;;;5092699;28;20034;-48
2022/04/22 00:50:46;;;;;;;38.23;28.30;;;9.90;99.90;;;;;;5091652;28;20415;-49
2022/04/22 00:53:35;;;;;;;42.55;30.80;;;9.80;99.90;;;;;;5099831;28;20049;-45
2022/04/22 00:56:20;;;;;;;40.03;30.13;;;9.90;99.90;;;;;;5112353;28;20031;-45
2022/04/22 00:59:05;;;;;;;40.50;30.02;;;9.90;99.90;;;;;;5100505;28;20471;-50
2022/04/22 01:01:49;;;;;;;43.45;30.70;;;9.80;99.90;;;;;;5092307;28;20078;-46
2022/04/22 01:10:40;;;;;;;50.67;35.28;;;9.80;99.90;;;;;;5108225;28;20039;-48
2022/04/22 01:13:24;;;;;;;45.92;31.75;;;9.80;99.90;;;;;;5111218;28;20088;-45
2022/04/22 01:16:08;;;;;;;41.55;30.25;;;9.90;99.90;;;;;;5106953;28;20027;-47
2022/04/22 01:18:52;;;;;;;45.27;32.20;;;9.80;99.90;;;;;;5099532;28;20038;-46
2022/04/22 01:21:36;;;;;;;45.97;31.08;;;9.80;99.90;;;;;;5101780;28;20031;-47
2022/04/22 01:24:20;;;;;;;47.20;30.67;;;9.70;99.90;;;;;;5092037;28;20040;-47
2022/04/22 01:27:06;;;;;;;44.50;31.83;;;9.70;99.90;;;;;;5092083;28;20561;-47
2022/04/22 01:29:51;;;;;;;44.72;32.92;;;9.70;99.90;;;;;;5105660;28;20640;-50
2022/04/22 01:32:35;;;;;;;42.83;29.83;;;9.70;99.90;;;;;;5085990;28;20195;-47
2022/04/22 01:35:19;;;;;;;43.30;32.33;;;9.70;99.90;;;;;;5091482;28;20555;-47
2022/04/22 01:38:03;;;;;;;43.17;31.48;;;9.70;99.90;;;;;;5110833;28;20034;-48
2022/04/22 01:40:48;;;;;;;45.63;31.48;;;9.70;99.90;;;;;;5112096;28;20046;-47
2022/04/22 01:43:34;;;;;;;44.97;31.13;;;9.70;99.90;;;;;;5114736;28;20210;-48
2022/04/22 01:46:19;;;;;;;44.45;30.63;;;9.70;99.90;;;;;;5095346;28;20050;-45
2022/04/22 01:49:03;;;;;;;43.70;30.65;;;9.70;99.90;;;;;;5108653;28;20399;-46
2022/04/22 01:51:47;;;;;;;44.90;31.63;;;9.70;99.90;;;;;;5092581;28;20035;-46
2022/04/22 01:54:31;;;;;;;39.95;30.05;;;9.70;99.90;;;;;;5106419;28;20088;-46
2022/04/22 01:57:15;;;;;;;42.03;30.53;;;9.70;99.90;;;;;;5111823;28;20552;-46
2022/04/22 02:00:00;;;;;;;46.53;31.92;;;9.70;99.90;;;;;;5093428;28;20055;-47
2022/04/22 02:02:44;;;;;;;;;;;9.70;99.90;;;;;;5076830;28;20047;-46
2022/04/22 02:05:28;;;;;;;44.20;31.05;;;9.70;99.90;;;;;;5090971;28;20506;-47
2022/04/22 02:08:12;;;;;;;46.00;33.15;;;9.70;99.90;;;;;;5092170;28;20750;-47
2022/04/22 02:10:57;;;;;;;42.08;31.00;;;9.70;99.90;;;;;;5109821;28;20146;-49
2022/04/22 02:13:41;;;;;;;45.90;32.47;;;9.70;99.90;;;;;;5104744;28;20039;-46
2022/04/22 02:16:26;;;;;;;46.08;32.78;;;9.70;99.90;;;;;;5091107;28;20081;-47
2022/04/22 02:19:10;;;;;;;43.87;31.77;;;9.70;99.90;;;;;;5095353;28;20094;-46
2022/04/22 02:21:54;;;;;;;40.23;31.27;;;9.70;99.90;;;;;;5095231;27;20086;-51
2022/04/22 02:24:38;;;;;;;42.30;30.98;;;9.70;99.90;;;;;;5114644;28;20613;-49
2022/04/22 02:30:25;;;;;;;44.08;30.77;;;9.80;99.90;;;;;;5114236;28;20335;-48
2022/04/22 02:33:09;;;;;;;45.00;31.20;;;9.70;99.90;;;;;;5099054;28;20065;-47
2022/04/22 02:35:53;;;;;;;43.47;30.60;;;9.70;99.90;;;;;;5094155;28;20039;-50
2022/04/22 02:38:38;;;;;;;44.35;31.63;;;9.60;99.90;;;;;;5113611;28;20104;-50
2022/04/22 02:47:28;;;;;;;41.42;30.05;;;9.60;99.90;;;;;;5105918;28;20403;-46
2022/04/22 02:50:12;;;;;;;43.58;30.35;;;9.70;99.90;;;;;;5102985;28;20426;-46
2022/04/22 02:52:56;;;;;;;45.72;32.17;;;9.70;99.90;;;;;;5114708;28;20039;-47
2022/04/22 02:55:47;;;;;;;41.78;30.40;;;9.70;99.90;;;;;;5113659;28;20513;-49
2022/04/22 02:58:32;;;;;;;42.10;30.92;;;9.70;99.90;;;;;;5114618;28;20501;-47
2022/04/22 03:01:17;;;;;;;46.38;33.45;;;9.70;99.90;;;;;;5098488;28;20115;-47
2022/04/22 03:04:01;;;;;;;42.60;32.65;;;9.60;99.90;;;;;;5094662;28;20078;-47
2022/04/22 03:06:45;;;;;;;44.25;32.00;;;9.60;99.90;;;;;;5094450;28;20035;-48
2022/04/22 03:09:29;;;;;;;48.87;33.33;;;9.60;99.90;;;;;;5099912;28;20070;-46
2022/04/22 03:12:13;;;;;;;44.43;33.20;;;9.70;99.90;;;;;;5107035;28;20066;-46
2022/04/22 03:14:57;;;;;;;44.58;32.17;;;9.60;99.90;;;;;;5113603;28;20062;-47
2022/04/22 03:17:41;;;;;;;43.83;32.33;;;9.60;99.90;;;;;;5114712;28;20026;-47
2022/04/22 03:20:25;;;;;;;43.40;32.47;;;9.60;99.90;;;;;;5114075;28;20047;-47
2022/04/22 03:23:10;;;;;;;47.05;32.03;;;9.60;99.90;;;;;;5114108;28;20049;-47
2022/04/22 03:25:54;;;;;;;42.30;31.75;;;9.60;99.90;;;;;;5102854;28;20059;-46
2022/04/22 03:28:38;;;;;;;42.33;30.65;;;9.70;99.90;;;;;;5096869;28;20035;-46
2022/04/22 03:31:22;;;;;;;42.45;31.40;;;9.70;99.90;;;;;;5093099;28;20102;-47
2022/04/22 03:34:07;;;;;;;40.35;32.10;;;9.70;99.90;;;;;;5092289;28;20399;-48
2022/04/22 03:36:51;;;;;;;41.88;32.10;;;9.70;99.90;;;;;;5077399;28;20116;-47
2022/04/22 03:39:35;;;;;;;44.13;31.70;;;9.70;99.90;;;;;;5092754;28;20039;-46
2022/04/22 03:42:19;;;;;;;45.70;32.88;;;9.70;99.90;;;;;;5102633;27;20280;-49
2022/04/22 03:45:06;;;;;;;42.60;33.30;;;9.70;99.90;;;;;;5113875;28;20047;-48
2022/04/22 03:47:51;;;;;;;42.60;32.83;;;9.70;99.90;;;;;;5102737;28;20458;-47
2022/04/22 03:50:36;;;;;;;;;;;9.70;99.90;;;;;;5093681;28;20093;-50
2022/04/22 03:53:20;;;;;;;42.97;31.95;;;9.70;99.90;;;;;;5107053;28;19991;-52
2022/04/22 03:59:08;;;;;;;44.58;33.40;;;9.70;99.90;;;;;;5092793;28;20043;-49
2022/04/22 04:01:52;;;;;;;42.72;34.90;;;9.70;99.90;;;;;;5093004;28;20563;-46
2022/04/22 04:04:33;;;;;;;46.45;33.13;;;9.70;99.90;;;;;;5112635;28;20046;-50
2022/04/22 04:07:17;;;;;;;42.00;32.72;;;9.70;99.90;;;;;;5108271;28;20035;-48
2022/04/22 04:16:08;;;;;;;40.05;32.53;;;9.70;99.90;;;;;;5113422;28;20104;-53
2022/04/22 04:18:52;;;;;;;40.00;31.75;;;9.70;99.90;;;;;;5101323;27;20035;-49
2022/04/22 04:24:39;;;;;;;40.50;32.33;;;9.80;99.90;;;;;;5110427;28;20070;-49
2022/04/22 04:27:23;;;;;;;41.27;32.60;;;9.70;99.90;;;;;;5091869;28;20046;-52
2022/04/22 04:30:07;;;;;;;39.87;31.63;;;9.70;99.90;;;;;;5078333;28;20093;-48
2022/04/22 04:32:52;;;;;;;41.35;32.38;;;9.70;99.90;;;;;;5112570;28;20076;-52
2022/04/22 04:35:38;;;;;;;37.67;31.08;;;9.70;99.90;;;;;;5102610;28;20054;-52
2022/04/22 04:38:23;;;;;;;40.47;30.30;;;9.80;99.90;;;;;;5092607;28;20258;-48
2022/04/22 04:41:08;;;;;;;36.90;29.27;;;9.80;99.90;;;;;;5092301;28;20074;-52
2022/04/22 04:43:52;;;;;;;39.40;31.38;;;9.80;99.90;;;;;;5095502;28;20038;-49
2022/04/22 04:46:36;;;;;;;39.40;31.05;;;9.80;99.90;;;;;;5112808;28;20655;-50
2022/04/22 04:49:21;;;;;;;39.20;30.13;;;9.70;99.90;;;;;;5091617;28;20086;-52
2022/04/22 04:52:06;;;;;;;35.55;30.15;;;9.70;99.90;;;;;;5092013;28;20085;-49
2022/04/22 04:54:51;;;;;;;36.15;29.38;;;9.80;99.90;;;;;;5085648;28;20038;-52
2022/04/22 04:57:36;;;;;;;34.83;28.98;;;9.70;99.90;;;;;;5093221;28;20399;-48
2022/04/22 05:00:20;;;;;;;35.88;29.25;;;9.70;99.90;;;;;;5094046;28;20035;-49
2022/04/22 05:03:05;;;;;;;38.00;29.50;;;9.70;99.90;;;;;;5095826;28;20035;-53
2022/04/22 05:05:50;;;;;;;36.13;28.90;;;9.70;99.90;;;;;;5105926;28;20035;-53
2022/04/22 05:08:34;;;;;;;36.50;27.90;;;9.70;99.90;;;;;;5094760;28;20734;-48
2022/04/22 05:11:18;;;;;;;34.72;28.30;;;9.60;99.90;;;;;;5092652;28;20558;-54
2022/04/22 05:14:03;;;;;;;35.25;29.90;;;9.60;99.90;;;;;;5112177;28;20175;-51
2022/04/22 05:16:47;;;;;;;35.40;28.60;;;9.70;99.90;;;;;;5110530;28;20085;-50
2022/04/22 05:19:32;;;;;;;33.90;28.65;;;9.70;99.90;;;;;;5111437;28;20133;-49
2022/04/22 05:22:16;;;;;;;38.33;29.95;;;9.70;99.90;;;;;;5095302;28;20121;-56
2022/04/22 05:25:00;;;;;;;33.47;28.10;;;9.80;99.90;;;;;;5092846;28;20154;-54
2022/04/22 05:27:44;;;;;;;37.30;30.03;;;9.80;99.90;;;;;;5091631;28;20427;-52
2022/04/22 05:33:31;;;;;;;34.50;29.10;;;9.70;99.90;;;;;;5111343;28;20091;-51
2022/04/22 05:36:15;;;;;;;37.47;30.43;;;9.70;99.90;;;;;;5090554;28;20526;-51
2022/04/22 05:38:59;;;;;;;34.72;30.15;;;9.80;99.90;;;;;;5093102;28;20594;-54
2022/04/22 05:41:43;;;;;;;37.65;28.98;;;9.80;99.90;;;;;;5115644;28;20056;-50
2022/04/22 05:44:28;;;;;;;37.87;29.17;;;9.80;99.90;;;;;;5125708;28;20046;-53
2022/04/22 05:47:12;;;;;;;34.95;28.80;;;9.80;99.90;;;;;;5111441;28;20382;-52
2022/04/22 05:49:57;;;;;;;34.00;27.87;;;9.90;99.90;;;;;;5086997;28;20119;-49
2022/04/22 05:52:42;;;;;;;33.87;28.50;;;9.90;99.90;;;;;;5094006;28;20111;-50
2022/04/22 05:55:27;;;;;;;35.25;29.02;;;9.90;99.90;;;;;;5116361;28;20261;-47
2022/04/22 05:58:11;;;;;;;38.78;28.10;;;9.90;99.90;;;;;;5110319;28;20039;-48
2022/04/22 06:00:56;;;;;;;35.50;28.47;;;9.90;99.90;;;;;;5102154;28;20093;-47
2022/04/22 06:03:40;;;;;;;36.15;27.85;;;10.00;99.90;;;;;;5115274;28;20399;-46
2022/04/22 06:06:24;;;;;;;36.93;28.07;;;10.00;99.90;;;;;;5104846;28;20474;-50
2022/04/22 06:12:12;;;;;;;36.13;27.77;;;10.00;99.90;;;;;;5106814;28;20629;-48
2022/04/22 06:14:59;;;;;;;;;;;10.10;99.90;;;;;;5114586;28;20119;-49
2022/04/22 06:17:43;;;;;;;37.25;28.48;;;10.00;99.90;;;;;;5113295;28;19915;-48
2022/04/22 06:20:27;;;;;;;40.78;30.08;;;9.90;99.90;;;;;;5115555;28;20078;-49
2022/04/22 06:23:11;;;;;;;35.87;29.50;;;9.90;99.90;;;;;;5115319;28;20043;-52
2022/04/22 06:25:55;;;;;;;43.17;30.80;;;9.90;99.90;;;;;;5113483;28;20783;-55
2022/04/22 06:28:43;;;;;;;40.05;29.40;;;9.80;99.90;;;;;;5085713;28;20045;-61
2022/04/22 06:31:29;;;;;;;42.38;31.05;;;9.90;99.90;;;;;;5095088;28;20711;-56
2022/04/22 06:34:13;;;;;;;39.72;30.50;;;9.90;99.90;;;;;;5096343;28;20111;-49
2022/04/22 06:36:58;;;;;;;41.90;30.80;;;10.00;99.90;;;;;;5114245;28;20038;-55
2022/04/22 06:45:50;;;;;;;39.15;30.05;;;10.30;99.90;;;;;;5104635;28;20043;-52
2022/04/22 06:48:35;;;;;;;36.10;29.73;;;10.40;99.90;;;;;;5099252;28;20110;-55
2022/04/22 06:51:20;;;;;;;37.70;29.42;;;10.40;99.90;;;;;;5094053;28;20043;-55
2022/04/22 06:54:04;;;;;;;40.42;30.80;;;10.40;99.90;;;;;;5094786;28;20158;-47
2022/04/22 06:56:49;;;;;;;34.90;28.25;;;10.40;99.90;;;;;;5114148;28;20077;-52
2022/04/22 06:59:35;;;;;;;39.13;30.38;;;10.30;99.90;;;;;;5093549;28;20415;-50
2022/04/22 07:02:19;;;;;;;35.60;29.58;;;10.30;99.90;;;;;;5083108;28;20415;-49
2022/04/22 07:05:04;;;;;;;37.33;30.83;;;10.40;99.90;;;;;;5080761;28;20054;-50
2022/04/22 07:07:48;;;;;;;40.75;32.28;;;10.30;99.90;;;;;;5114353;28;20038;-54
2022/04/22 07:10:36;;;;;;;40.73;33.00;;;10.40;99.90;;;;;;5116855;27;20074;-51
2022/04/22 07:13:20;;;;;;;38.78;31.92;;;10.40;99.90;;;;;;5110847;27;20077;-46
2022/04/22 07:16:05;;;;;;;42.90;33.43;;;10.60;99.90;;;;;;5103693;28;20035;-48
2022/04/22 07:18:50;;;;;;;42.60;33.35;;;10.60;99.90;;;;;;5093871;28;20032;-52
2022/04/22 07:21:35;;;;;;;44.88;34.58;;;10.70;99.90;;;;;;5098055;28;20043;-48
2022/04/22 07:24:19;;;;;;;41.67;33.40;;;10.80;99.90;;;;;;5093664;28;20411;-48
2022/04/22 07:27:04;;;;;;;44.80;34.20;;;10.80;99.90;;;;;;5110267;28;20050;-48
2022/04/22 07:29:49;;;;;;;42.13;33.95;;;10.90;99.90;;;;;;5102883;28;20047;-48
2022/04/22 07:32:37;;;;;;;38.15;30.77;;;11.00;99.90;;;;;;5078319;28;20046;-51
2022/04/22 07:35:22;;;;;;;44.33;34.05;;;11.10;99.90;;;;;;5106878;28;20051;-52
2022/04/22 07:38:06;;;;;;;46.17;36.05;;;11.00;99.90;;;;;;5113361;28;20054;-48
2022/04/22 07:40:51;;;;;;;39.57;32.50;;;11.20;99.90;;;;;;5095603;28;20454;-51
2022/04/22 07:46:48;;;;;;;38.58;30.45;;;11.40;99.90;;;;;;5093012;28;20078;-49
2022/04/22 07:49:32;;;;;;;36.22;29.80;;;11.50;99.90;;;;;;5098719;28;20035;-58
2022/04/22 07:52:17;;;;;;;34.60;29.75;;;11.50;99.90;;;;;;5097605;28;20545;-48
2022/04/22 07:55:01;;;;;;;36.97;30.58;;;11.70;99.90;;;;;;5111391;28;20054;-49
2022/04/22 07:57:46;;;;;;;38.20;29.83;;;11.80;99.90;;;;;;5104849;27;20038;-51
2022/04/22 08:00:30;;;;;;;35.03;29.65;;;11.90;99.90;;;;;;5113725;28;20034;-52
2022/04/22 08:03:17;;;;;;;31.65;27.33;;;11.90;99.90;;;;;;5095426;28;20198;-53
2022/04/22 08:06:03;;;;;;;32.13;27.90;;;12.00;99.90;;;;;;5112947;28;20051;-48
2022/04/22 08:08:47;;;;;;;35.70;27.98;;;12.10;99.90;;;;;;5100308;28;20448;-53
2022/04/22 08:11:31;;;;;;;34.28;27.40;;;12.10;99.90;;;;;;5112749;28;20490;-54
2022/04/22 08:14:15;;;;;;;32.37;28.00;;;12.10;99.90;;;;;;5109850;28;20645;-50
2022/04/22 08:17:00;;;;;;;36.00;28.17;;;12.00;99.90;;;;;;5092442;28;20673;-50
2022/04/22 08:19:46;;;;;;;34.08;28.73;;;12.00;99.90;;;;;;5097852;28;20038;-48
2022/04/22 08:22:30;;;;;;;33.90;29.13;;;11.90;99.90;;;;;;5112678;28;20030;-51
2022/04/22 08:25:15;;;;;;;35.90;29.50;;;12.00;99.90;;;;;;5109424;28;20042;-52
2022/04/22 08:27:59;;;;;;;35.70;28.73;;;12.00;99.90;;;;;;5098460;28;20274;-50
2022/04/22 08:30:43;;;;;;;33.25;28.63;;;11.90;99.90;;;;;;5093058;28;20051;-50
2022/04/22 08:33:27;;;;;;;33.83;27.80;;;12.00;99.90;;;;;;5076162;28;20397;-50
2022/04/22 08:36:12;;;;;;;36.27;30.77;;;11.80;99.90;;;;;;5107445;28;20644;-50
2022/04/22 08:38:57;;;;;;;34.58;29.45;;;11.90;99.90;;;;;;5112397;28;20084;-48
2022/04/22 08:41:41;;;;;;;;;;;11.90;99.90;;;;;;5085214;27;20038;-49
2022/04/22 08:44:26;;;;;;;30.60;25.27;;;12.10;99.90;;;;;;5123295;27;19972;-50
2022/04/22 08:50:16;;;;;;;28.60;25.45;;;12.20;99.90;;;;;;5104784;28;20097;-49
2022/04/22 08:53:05;;;;;;;40.53;27.27;;;12.30;99.90;;;;;;5105414;28;20167;-47
2022/04/22 08:55:56;;;;;;;28.50;25.42;;;12.40;99.90;;;;;;5092503;28;20039;-51
2022/04/22 08:58:42;;;;;;;29.25;24.98;;;12.60;99.90;;;;;;5095645;28;20064;-47
2022/04/22 09:01:26;;;;;;;30.48;26.77;;;12.70;99.90;;;;;;5099244;28;20391;-48
2022/04/22 09:04:10;;;;;;;27.23;24.33;;;12.50;99.90;;;;;;5091377;28;20039;-49
2022/04/22 09:06:56;;;;;;;28.17;25.13;;;12.60;99.90;;;;;;5098058;28;20035;-47
2022/04/22 09:09:40;;;;;;;27.60;24.70;;;12.90;99.90;;;;;;5104138;28;20038;-48
2022/04/22 09:12:26;;;;;;;28.95;25.38;;;12.90;99.90;;;;;;5090809;28;20031;-50
2022/04/22 09:15:10;;;;;;;27.15;24.17;;;13.00;99.90;;;;;;5103597;28;20036;-54
2022/04/22 09:17:57;;;;;;;25.95;23.15;;;13.10;99.90;;;;;;5105394;28;20112;-48
2022/04/22 09:20:42;;;;;;;25.08;22.38;;;13.10;99.90;;;;;;5100821;28;20035;-54
2022/04/22 09:23:31;;;;;;;23.93;21.47;;;13.10;99.90;;;;;;5097461;28;20077;-53
2022/04/22 09:26:23;;;;;;;21.80;18.40;;;13.10;99.90;;;;;;5110376;28;20070;-50
2022/04/22 09:29:10;;;;;;;22.60;17.38;;;13.10;99.90;;;;;;5103873;28;20031;-51
2022/04/22 09:31:54;;;;;;;20.02;16.88;;;13.20;99.90;;;;;;5095382;28;20063;-49
2022/04/22 09:34:42;;;;;;;17.90;16.00;;;13.10;99.90;;;;;;5110276;28;20063;-50
2022/04/22 09:43:42;;;;;;;22.48;19.17;;;13.00;99.90;;;;;;5129647;27;20069;-50
2022/04/22 09:46:30;;;;;;;22.10;18.83;;;13.10;99.90;;;;;;5115736;28;20042;-48
2022/04/22 09:49:43;;;;;;;20.73;18.52;;;13.00;99.90;;;;;;5095204;28;20689;-47
2022/04/22 09:52:27;;;;;;;25.90;19.90;;;13.00;99.90;;;;;;5099300;28;20027;-47
2022/04/22 09:55:15;;;;;;;;;;;13.20;99.90;;;;;;5111199;28;20043;-50
2022/04/22 09:58:00;;;;;;;24.70;20.88;;;13.40;99.90;;;;;;5110101;28;20365;-51
2022/04/22 10:00:44;;;;;;;22.58;19.42;;;13.60;99.90;;;;;;5110995;28;20090;-46
2022/04/22 10:03:30;;;;;;;23.15;19.92;;;13.40;99.90;;;;;;5114315;28;20074;-48
2022/04/22 10:06:15;;;;;;;25.05;21.15;;;13.50;99.90;;;;;;5096851;28;20054;-53
2022/04/22 10:08:59;;;;;;;26.70;22.70;;;13.70;99.90;;;;;;5098200;28;20137;-49
2022/04/22 10:11:48;;;;;;;25.63;21.80;;;13.70;99.90;;;;;;5116998;27;20597;-49
2022/04/22 10:14:38;;;;;;;25.08;21.65;;;13.60;99.90;;;;;;5105276;27;20093;-51
2022/04/22 10:17:23;;;;;;;21.65;19.35;;;13.60;99.90;;;;;;5103853;27;20043;-51
2022/04/22 10:20:07;;;;;;;21.08;18.80;;;13.50;99.90;;;;;;5108505;28;20403;-48
2022/04/22 10:22:53;;;;;;;22.60;20.20;;;13.60;99.90;;;;;;5103716;28;20058;-55
2022/04/22 10:25:38;;;;;;;;;;;13.70;99.90;;;;;;5111747;28;20682;-50
2022/04/22 10:28:28;;;;;;;21.95;19.45;;;13.70;99.90;;;;;;5112368;28;19919;-49
2022/04/22 10:31:12;;;;;;;20.20;18.20;;;13.90;99.90;;;;;;5091609;28;20098;-48
2022/04/22 10:34:06;;;;;;;23.20;17.50;;;13.90;99.90;;;;;;5096364;28;20126;-52
2022/04/22 10:36:57;;;;;;;19.90;17.80;;;13.80;99.90;;;;;;5108738;28;20043;-51
2022/04/22 10:39:41;;;;;;;21.42;19.02;;;13.90;99.90;;;;;;5093203;28;20134;-52
2022/04/22 10:42:37;;;;;;;20.80;18.48;;;14.00;99.90;;;;;;5124356;27;20038;-48
2022/04/22 10:48:27;;;;;;;16.80;15.05;;;13.80;99.90;;;;;;5113650;28;20038;-48
2022/04/22 10:51:11;;;;;;;;;;;14.00;99.90;;;;;;5113728;28;20081;-55
2022/04/22 10:53:55;;;;;;;21.23;17.30;;;14.10;99.90;;;;;;5099102;28;19915;-48
2022/04/22 10:56:40;;;;;;;17.55;15.73;;;14.30;99.90;;;;;;5109610;27;20034;-50
2022/04/22 10:59:28;;;;;;;17.63;14.38;;;14.30;99.90;;;;;;5102850;27;20082;-52
2022/04/22 11:02:29;;;;;;;26.38;18.33;;;14.20;99.50;;;;;;5100228;28;20035;-53
2022/04/22 11:05:19;;;;;;;20.00;17.70;;;14.30;99.90;;;;;;5089812;28;20045;-49
2022/04/22 11:08:06;;;;;;;18.90;16.85;;;14.30;99.90;;;;;;5095262;28;20078;-51
2022/04/22 11:10:51;;;;;;;19.00;16.77;;;14.40;99.90;;;;;;5095286;28;20126;-51
2022/04/22 11:13:38;;;;;;;23.48;18.27;;;14.30;99.90;;;;;;5096537;28;20060;-51
2022/04/22 11:16:28;;;;;;;18.58;16.58;;;14.00;99.90;;;;;;5096497;28;20452;-49
2022/04/22 11:19:18;;;;;;;19.48;17.48;;;13.90;99.90;;;;;;5095464;28;20031;-52
2022/04/22 11:22:06;;;;;;;20.25;16.90;;;13.70;99.90;;;;;;5100429;28;20030;-49
2022/04/22 11:24:51;;;;;;;20.50;17.20;;;13.60;99.90;;;;;;5112960;28;20062;-52
2022/04/22 11:27:36;;;;;;;18.83;16.83;;;13.70;99.90;;;;;;5114191;27;20493;-52
2022/04/22 11:30:20;;;;;;;;;;;13.80;99.90;;;;;;5087168;28;20039;-53
2022/04/22 11:33:23;;;;;;;19.73;17.58;;;13.80;99.90;;;;;;5093901;28;19923;-49
2022/04/22 11:36:07;;;;;;;21.63;17.77;;;13.70;99.90;;;;;;5077234;28;20569;-53
2022/04/22 11:38:53;;;;;;;20.83;18.63;;;13.70;99.90;;;;;;5093909;28;20498;-47
2022/04/22 11:41:51;;;;;;;21.58;19.27;;;13.50;99.90;;;;;;5116506;27;20758;-51
2022/04/22 11:44:35;;;;;;;19.70;17.60;;;13.70;99.90;;;;;;5100667;28;20548;-49
2022/04/22 11:47:19;;;;;;;20.88;18.35;;;13.80;99.90;;;;;;5113549;28;20537;-52
2022/04/22 11:50:05;;;;;;;20.30;17.33;;;14.00;99.90;;;;;;5096794;28;20049;-52
2022/04/22 11:52:52;;;;;;;18.77;15.77;;;14.00;99.40;;;;;;5113390;28;20101;-50
2022/04/22 11:55:36;;;;;;;17.45;15.52;;;14.00;99.50;;;;;;5098008;28;20088;-52
2022/04/22 11:58:24;;;;;;;23.07;15.83;;;14.30;99.20;;;;;;5104797;28;20034;-51
2022/04/22 12:10:19;;;;;;;21.10;17.20;;;14.90;98.60;;;;;;5092485;28;20420;-53
2022/04/22 12:13:04;;;;;;;20.85;17.35;;;14.80;98.30;;;;;;5102694;28;20036;-49
2022/04/22 12:15:48;;;;;;;19.35;17.30;;;14.60;98.90;;;;;;5111862;28;20146;-49
2022/04/22 12:18:34;;;;;;;19.88;17.92;;;14.50;98.90;;;;;;5112739;28;20035;-49
2022/04/22 12:21:18;;;;;;;19.52;17.63;;;14.60;98.80;;;;;;5096843;28;20129;-49
2022/04/22 12:24:03;;;;;;;20.48;18.35;;;14.50;99.30;;;;;;5092226;28;20093;-48
2022/04/22 12:26:48;;;;;;;23.02;20.58;;;14.70;99.40;;;;;;5092262;28;20039;-49
2022/04/22 12:29:32;;;;;;;21.48;19.25;;;14.70;98.70;;;;;;5092289;28;20081;-50
2022/04/22 12:32:16;;;;;;;21.27;19.13;;;14.40;99.60;;;;;;5092335;28;20023;-50
2022/04/22 12:35:15;;;;;;;27.50;19.15;;;14.40;99.80;;;;;;5102655;28;20074;-48
2022/04/22 12:38:05;;;;;;;22.63;19.85;;;14.60;99.50;;;;;;5111609;28;20506;-48
2022/04/22 12:40:50;;;;;;;21.85;19.55;;;14.60;99.10;;;;;;5097163;28;20078;-52
2022/04/22 12:43:34;;;;;;;22.08;19.75;;;14.60;98.80;;;;;;5133153;27;20099;-52
2022/04/22 12:52:46;;;;;;;22.40;20.00;;;15.00;98.50;;;;;;5132814;27;20391;-49
2022/04/22 12:55:30;;;;;;;21.67;19.40;;;15.10;98.60;;;;;;5132315;27;20035;-53
2022/04/22 12:58:15;;;;;;;21.45;18.35;;;15.00;98.50;;;;;;5131606;27;20084;-54
2022/04/22 13:01:02;;;;;;;21.77;18.02;;;15.30;98.10;;;;;;5109308;28;20093;-52
2022/04/22 13:03:46;;;;;;;23.52;18.80;;;15.70;97.30;;;;;;5111240;28;20034;-49
2022/04/22 13:06:49;;;;;;;21.65;19.30;;;15.80;97.50;;;;;;5111453;28;20092;-55
2022/04/22 13:09:34;;;;;;;20.52;18.33;;;15.80;97.40;;;;;;5111364;28;20498;-53
2022/04/22 13:12:18;;;;;;;20.93;18.20;;;16.00;97.10;;;;;;5115256;27;20042;-51
2022/04/22 13:15:09;;;;;;;21.23;19.15;;;16.30;97.10;;;;;;5132622;27;20826;-51
2022/04/22 13:17:53;;;;;;;20.85;18.65;;;16.50;96.50;;;;;;5097398;28;20031;-51
2022/04/22 13:20:37;;;;;;;19.50;17.50;;;16.30;96.80;;;;;;5112137;28;20054;-53
2022/04/22 13:23:21;;;;;;;20.53;18.53;;;16.10;96.70;;;;;;5111657;28;20335;-55
2022/04/22 13:26:05;;;;;;;21.30;18.95;;;16.30;96.30;;;;;;5111196;28;20034;-52
2022/04/22 13:28:50;;;;;;;22.95;19.15;;;16.10;96.50;;;;;;5121016;27;20107;-52
2022/04/22 13:31:37;;;;;;;20.23;18.13;;;16.00;96.40;;;;;;5132786;28;20058;-48
2022/04/22 13:34:22;;;;;;;21.63;19.20;;;16.10;96.30;;;;;;5120229;27;20070;-49
2022/04/22 13:37:08;;;;;;;20.53;17.47;;;15.90;96.20;;;;;;5111966;28;20077;-49
2022/04/22 13:39:52;;;;;;;18.88;16.88;;;15.90;96.70;;;;;;5112774;28;20372;-53
2022/04/22 13:42:36;;;;;;;18.25;16.38;;;16.10;96.30;;;;;;5122812;28;20135;-53
2022/04/22 13:54:36;;;;;;;18.85;16.15;;;16.80;95.00;;;;;;5119363;28;20449;-52
2022/04/22 13:57:20;;;;;;;19.97;16.63;;;16.90;94.40;;;;;;5125546;27;20081;-54
2022/04/22 14:00:05;;;;;;;18.95;16.88;;;16.50;94.90;;;;;;5119848;28;20042;-52
2022/04/22 14:02:49;;;;;;;21.45;17.40;;;16.40;94.90;;;;;;5112720;28;20080;-54
2022/04/22 14:05:34;;;;;;;17.38;15.57;;;16.30;95.30;;;;;;5110931;28;20042;-51
2022/04/22 14:08:18;;;;;;;19.23;16.67;;;16.70;95.30;;;;;;5111725;28;20403;-50
2022/04/22 14:11:03;;;;;;;20.35;16.88;;;17.50;94.30;;;;;;5111120;28;20039;-55
2022/04/22 14:13:47;;;;;;;19.30;17.40;;;17.90;93.60;;;;;;5108492;28;20054;-50
2022/04/22 14:16:31;;;;;;;18.58;16.75;;;17.70;93.50;;;;;;5114107;28;20039;-51
2022/04/22 14:19:15;;;;;;;17.73;15.93;;;17.60;93.60;;;;;;5096843;28;20042;-53
2022/04/22 14:21:59;;;;;;;;;;;17.50;93.80;;;;;;5096001;28;20102;-61
2022/04/22 14:24:44;;;;;;;21.75;19.55;;;17.20;94.00;;;;;;5094876;28;19966;-57
2022/04/22 14:27:28;;;;;;;23.75;19.10;;;16.60;94.80;;;;;;5095662;28;20035;-57
2022/04/22 14:30:12;;;;;;;23.45;18.67;;;16.20;95.50;;;;;;5101837;28;20042;-61
2022/04/22 14:32:56;;;;;;;21.55;19.30;;;16.10;95.60;;;;;;5099332;28;20161;-55
2022/04/22 14:35:40;;;;;;;20.75;18.58;;;16.50;95.30;;;;;;5094199;28;20085;-58
2022/04/22 14:38:25;;;;;;;23.00;18.55;;;17.00;94.80;;;;;;5103041;28;20031;-56
2022/04/22 14:41:09;;;;;;;21.27;18.00;;;17.50;93.90;;;;;;5114503;28;20097;-52
2022/04/22 14:43:53;;;;;;;19.88;17.77;;;18.00;93.40;;;;;;5106294;28;20399;-62
2022/04/22 14:46:37;;;;;;;21.05;18.38;;;17.90;93.30;;;;;;5114666;28;20042;-62
2022/04/22 14:49:22;;;;;;;27.13;20.90;;;17.50;94.10;;;;;;5098175;28;20093;-61
2022/04/22 14:52:07;;;;;;;;;;;16.90;94.70;;;;;;5079190;28;20425;-52
2022/04/22 14:54:51;;;;;;;23.13;20.52;;;16.30;95.60;;;;;;5097945;28;19910;-55
2022/04/22 14:57:37;;;;;;;25.80;22.63;;;15.90;96.20;;;;;;5105074;28;20534;-54
2022/04/22 15:00:21;;;;;;;24.45;21.92;;;15.70;96.70;;;;;;5113346;27;20525;-51
2022/04/22 15:03:05;;;;;;;25.58;22.88;;;15.60;96.90;;;;;;5095997;28;20091;-54
2022/04/22 15:05:51;;;;;;;29.88;24.52;;;15.50;97.10;;;;;;5093702;28;20047;-56
2022/04/22 15:08:35;;;;;;;25.85;23.13;;;15.50;97.00;;;;;;5110183;28;20034;-59
2022/04/22 15:11:19;;;;;;;25.38;22.67;;;15.40;97.10;;;;;;5098446;28;20498;-55
2022/04/22 15:14:05;;;;;;;25.02;22.33;;;15.40;97.40;;;;;;5078690;28;20160;-58
2022/04/22 15:16:48;;;;;;;28.88;25.20;;;15.40;97.50;;;;;;5077765;28;20079;-57
2022/04/22 15:25:40;;;;;;;28.30;22.83;;;15.30;97.40;;;;;;5088832;28;20089;-53
2022/04/22 15:28:24;;;;;;;26.40;22.85;;;15.40;97.30;;;;;;5093818;28;20110;-51
2022/04/22 15:31:12;;;;;;;29.10;25.83;;;15.30;97.50;;;;;;5083639;28;20569;-55